Time,TemperatureF,DewpointF,PressureIn,WindDirection,WindDirectionDegrees,WindSpeedMPH,WindSpeedGustMPH,Humidity,HourlyPrecipIn,Conditions,Clouds,dailyrainin,SoftwareType,DateUTC
2013-10-23 00:01:00,72.7,68.3,29.74,NNW,331,3.1,3.1,86,0.00,,---,0.00,VWS V14.01,2013-10-23 04:01:00,
2013-10-23 00:06:00,72.5,68.1,29.74,NNW,335,0.0,0.0,86,0.00,,---,0.00,VWS V14.01,2013-10-23 04:06:00,
2013-10-23 00:11:00,72.3,67.9,29.74,North,10,0.0,3.1,86,0.00,,---,0.00,VWS V14.01,2013-10-23 04:11:00,
2013-10-23 00:16:00,72.1,67.8,29.74,North,349,2.2,3.1,86,0.00,,---,0.00,VWS V14.01,2013-10-23 04:16:00,
2013-10-23 00:21:00,72.1,67.8,29.74,North,4,2.2,2.7,86,0.00,,---,0.00,VWS V14.01,2013-10-23 04:21:00,
2013-10-23 00:26:00,72.0,67.6,29.74,NE,41,0.0,4.0,86,0.00,,---,0.00,VWS V14.01,2013-10-23 04:26:00,
2013-10-23 00:31:00,71.8,67.4,29.74,North,357,3.1,3.1,86,0.00,,---,0.00,VWS V14.01,2013-10-23 04:31:00,
2013-10-23 00:36:00,71.8,67.4,29.74,ENE,58,0.0,5.8,86,0.00,,---,0.00,VWS V14.01,2013-10-23 04:36:00,
2013-10-23 00:41:00,71.4,67.1,29.74,NNW,341,2.2,2.2,86,0.00,,---,0.00,VWS V14.01,2013-10-23 04:41:00,
2013-10-23 00:46:00,71.4,67.1,29.74,NNW,341,3.1,3.1,86,0.00,,---,0.00,VWS V14.01,2013-10-23 04:46:00,
2013-10-23 00:51:00,71.1,66.7,29.74,NNE,30,4.0,4.0,86,0.00,,---,0.00,VWS V14.01,2013-10-23 04:51:00,
2013-10-23 00:56:00,70.9,66.5,29.74,North,353,3.1,6.3,86,0.00,,---,0.00,VWS V14.01,2013-10-23 04:56:00,
2013-10-23 01:01:00,70.5,66.2,29.74,NNW,335,0.0,0.0,86,0.00,,---,0.00,VWS V14.01,2013-10-23 05:01:00,
2013-10-23 01:06:00,70.3,66.0,29.74,NNE,17,3.6,3.6,86,0.00,,---,0.00,VWS V14.01,2013-10-23 05:06:00,
2013-10-23 01:11:00,70.2,66.2,29.74,North,357,2.2,3.6,87,0.00,,---,0.00,VWS V14.01,2013-10-23 05:11:00,
2013-10-23 01:16:00,70.0,66.0,29.74,North,0,0.0,7.2,87,0.00,,---,0.00,VWS V14.01,2013-10-23 05:16:00,
2013-10-23 01:21:00,69.6,65.6,29.74,NE,44,0.0,2.7,87,0.00,,---,0.00,VWS V14.01,2013-10-23 05:21:00,
2013-10-23 01:26:00,69.4,65.5,29.74,NNE,24,5.8,8.1,87,0.00,,---,0.00,VWS V14.01,2013-10-23 05:26:00,
2013-10-23 01:31:00,69.4,65.8,29.74,NW,321,0.0,0.0,88,0.00,,---,0.00,VWS V14.01,2013-10-23 05:31:00,
2013-10-23 01:36:00,69.3,65.6,29.74,NW,319,0.0,0.0,88,0.00,,---,0.00,VWS V14.01,2013-10-23 05:36:00,
2013-10-23 01:41:00,69.3,65.6,29.74,North,357,0.0,3.1,88,0.00,,---,0.00,VWS V14.01,2013-10-23 05:41:00,
2013-10-23 01:46:00,69.3,65.6,29.74,North,0,2.2,4.9,88,0.00,,---,0.00,VWS V14.01,2013-10-23 05:46:00,
2013-10-23 01:51:00,69.1,65.4,29.74,NNW,329,0.0,0.0,88,0.00,,---,0.00,VWS V14.01,2013-10-23 05:51:00,
2013-10-23 01:56:00,68.9,65.3,29.74,NNW,341,4.0,4.0,88,0.00,,---,0.00,VWS V14.01,2013-10-23 05:56:00,
2013-10-23 02:01:00,68.7,65.1,29.74,NNW,331,0.0,0.0,88,0.00,,---,0.00,VWS V14.01,2013-10-23 06:01:00,
2013-10-23 02:06:00,68.5,64.9,29.74,NW,311,0.0,0.0,88,0.00,,---,0.00,VWS V14.01,2013-10-23 06:06:00,
2013-10-23 02:11:00,68.5,64.9,29.74,WNW,287,4.0,4.0,88,0.00,,---,0.00,VWS V14.01,2013-10-23 06:11:00,
2013-10-23 02:16:00,68.2,64.6,29.74,North,8,4.0,4.0,88,0.00,,---,0.00,VWS V14.01,2013-10-23 06:16:00,
2013-10-23 02:21:00,68.2,64.9,29.74,NE,52,0.0,0.0,89,0.00,,---,0.00,VWS V14.01,2013-10-23 06:21:00,
2013-10-23 02:26:00,68.0,64.7,29.74,North,0,0.0,0.0,89,0.00,,---,0.00,VWS V14.01,2013-10-23 06:26:00,
2013-10-23 02:31:00,68.0,64.7,29.74,NW,308,0.0,0.0,89,0.00,,---,0.00,VWS V14.01,2013-10-23 06:31:00,
2013-10-23 02:36:00,68.0,64.7,29.74,NNE,14,4.0,4.0,89,0.00,,---,0.00,VWS V14.01,2013-10-23 06:36:00,
2013-10-23 02:41:00,67.8,64.5,29.74,NNW,336,0.0,0.0,89,0.00,,---,0.00,VWS V14.01,2013-10-23 06:41:00,
2013-10-23 02:46:00,68.0,64.7,29.74,NW,323,0.0,0.0,89,0.00,,---,0.00,VWS V14.01,2013-10-23 06:46:00,
2013-10-23 02:51:00,68.0,64.7,29.74,NNW,344,0.0,2.2,89,0.00,,---,0.00,VWS V14.01,2013-10-23 06:51:00,
2013-10-23 02:56:00,68.0,65.1,29.74,NNE,15,0.0,0.0,90,0.00,,---,0.00,VWS V14.01,2013-10-23 06:56:00,
2013-10-23 03:01:00,68.0,65.1,29.74,North,11,0.0,0.0,90,0.00,,---,0.00,VWS V14.01,2013-10-23 07:01:00,
2013-10-23 03:06:00,68.0,65.1,29.74,North,0,0.0,0.0,90,0.00,,---,0.00,VWS V14.01,2013-10-23 07:06:00,
2013-10-23 03:11:00,68.0,65.1,29.74,NNW,327,0.0,0.0,90,0.00,,---,0.00,VWS V14.01,2013-10-23 07:11:00,
2013-10-23 03:16:00,68.0,65.1,29.74,North,4,0.0,0.0,90,0.00,,---,0.00,VWS V14.01,2013-10-23 07:16:00,
2013-10-23 03:21:00,67.8,64.9,29.74,NNW,340,0.0,0.0,90,0.00,,---,0.00,VWS V14.01,2013-10-23 07:21:00,
2013-10-23 03:26:00,67.8,64.9,29.74,NNW,346,0.0,0.0,90,0.00,,---,0.00,VWS V14.01,2013-10-23 07:26:00,
2013-10-23 03:31:00,67.6,64.7,29.74,NNW,346,0.0,0.0,90,0.00,,---,0.00,VWS V14.01,2013-10-23 07:31:00,
2013-10-23 03:36:00,67.6,64.7,29.74,NNW,346,0.0,0.0,90,0.00,,---,0.00,VWS V14.01,2013-10-23 07:36:00,
2013-10-23 03:41:00,67.5,64.5,29.74,NNW,346,0.0,0.0,90,0.00,,---,0.00,VWS V14.01,2013-10-23 07:41:00,
2013-10-23 03:46:00,67.5,64.5,29.74,NNW,346,0.0,0.0,90,0.00,,---,0.00,VWS V14.01,2013-10-23 07:46:00,
2013-10-23 03:51:00,67.5,64.9,29.74,NNW,346,0.0,0.0,91,0.00,,---,0.00,VWS V14.01,2013-10-23 07:51:00,
2013-10-23 03:56:00,67.5,64.9,29.74,NNW,346,0.0,0.0,91,0.00,,---,0.00,VWS V14.01,2013-10-23 07:56:00,
2013-10-23 04:01:00,67.5,64.9,29.74,NNW,346,0.0,0.0,91,0.00,,---,0.00,VWS V14.01,2013-10-23 08:01:00,
2013-10-23 04:06:00,67.5,64.9,29.74,NNW,346,0.0,0.0,91,0.00,,---,0.00,VWS V14.01,2013-10-23 08:06:00,
2013-10-23 04:11:00,67.5,64.9,29.74,NNW,346,0.0,0.0,91,0.00,,---,0.00,VWS V14.01,2013-10-23 08:11:00,
2013-10-23 04:16:00,67.3,64.7,29.74,NNW,346,0.0,0.0,91,0.00,,---,0.00,VWS V14.01,2013-10-23 08:16:00,
2013-10-23 04:21:00,67.3,64.7,29.74,NNW,346,0.0,0.0,91,0.00,,---,0.00,VWS V14.01,2013-10-23 08:21:00,
2013-10-23 04:26:00,67.1,64.5,29.74,NNW,346,0.0,0.0,91,0.00,,---,0.00,VWS V14.01,2013-10-23 08:26:00,
2013-10-23 04:31:00,67.1,64.5,29.74,NNW,346,0.0,0.0,91,0.00,,---,0.00,VWS V14.01,2013-10-23 08:31:00,
2013-10-23 04:36:00,67.1,64.5,29.74,NNW,346,0.0,0.0,91,0.00,,---,0.00,VWS V14.01,2013-10-23 08:36:00,
2013-10-23 04:41:00,67.1,64.5,29.74,NNW,346,0.0,0.0,91,0.00,,---,0.00,VWS V14.01,2013-10-23 08:41:00,
2013-10-23 04:46:00,66.9,64.3,29.74,NNW,346,0.0,0.0,91,0.00,,---,0.00,VWS V14.01,2013-10-23 08:46:00,
2013-10-23 04:51:00,66.9,64.3,29.74,NNW,346,0.0,0.0,91,0.00,,---,0.00,VWS V14.01,2013-10-23 08:51:00,
2013-10-23 04:56:00,66.9,64.3,29.74,NNW,346,0.0,0.0,91,0.00,,---,0.00,VWS V14.01,2013-10-23 08:56:00,
2013-10-23 05:01:00,66.9,64.3,29.74,NNW,346,0.0,0.0,91,0.00,,---,0.00,VWS V14.01,2013-10-23 09:01:00,
2013-10-23 05:06:00,66.9,64.3,29.74,NNW,346,0.0,0.0,91,0.00,,---,0.00,VWS V14.01,2013-10-23 09:06:00,
2013-10-23 05:11:00,66.9,64.3,29.74,NNW,346,0.0,0.0,91,0.00,,---,0.00,VWS V14.01,2013-10-23 09:11:00,
2013-10-23 05:16:00,66.9,64.3,29.74,NNW,346,0.0,0.0,91,0.00,,---,0.00,VWS V14.01,2013-10-23 09:16:00,
2013-10-23 05:21:00,66.7,64.1,29.74,NNW,346,0.0,0.0,91,0.00,,---,0.00,VWS V14.01,2013-10-23 09:21:00,
2013-10-23 05:26:00,66.7,64.1,29.74,NNW,346,0.0,0.0,91,0.00,,---,0.00,VWS V14.01,2013-10-23 09:26:00,
2013-10-23 05:31:00,66.7,64.5,29.74,NNW,346,0.0,0.0,92,0.00,,---,0.00,VWS V14.01,2013-10-23 09:31:00,
2013-10-23 05:36:00,66.7,64.5,29.74,NW,323,0.0,0.0,92,0.00,,---,0.00,VWS V14.01,2013-10-23 09:36:00,
2013-10-23 05:41:00,66.7,64.5,29.74,NW,323,0.0,0.0,92,0.00,,---,0.00,VWS V14.01,2013-10-23 09:41:00,
2013-10-23 05:46:00,66.7,64.5,29.74,NW,322,0.0,0.0,92,0.00,,---,0.00,VWS V14.01,2013-10-23 09:46:00,
2013-10-23 05:51:00,66.7,64.5,29.74,West,279,0.0,0.0,92,0.00,,---,0.00,VWS V14.01,2013-10-23 09:51:00,
2013-10-23 05:56:00,66.7,64.5,29.74,West,279,0.0,0.0,92,0.00,,---,0.00,VWS V14.01,2013-10-23 09:56:00,
2013-10-23 06:01:00,66.7,64.5,29.74,West,279,0.0,0.0,92,0.00,,---,0.00,VWS V14.01,2013-10-23 10:01:00,
2013-10-23 06:07:00,66.7,64.5,29.74,West,279,0.0,0.0,92,0.00,,---,0.00,VWS V14.01,2013-10-23 10:07:00,
2013-10-23 06:12:00,66.7,64.5,29.74,West,281,0.0,0.0,92,0.00,,---,0.00,VWS V14.01,2013-10-23 10:12:00,
2013-10-23 06:17:00,66.7,64.5,29.74,West,281,0.0,0.0,92,0.00,,---,0.00,VWS V14.01,2013-10-23 10:17:00,
2013-10-23 06:22:00,66.7,64.5,29.74,West,281,0.0,0.0,92,0.00,,---,0.00,VWS V14.01,2013-10-23 10:22:00,
2013-10-23 06:27:00,66.7,64.8,29.77,West,281,0.0,0.0,93,0.00,,---,0.00,VWS V14.01,2013-10-23 10:27:00,
2013-10-23 06:32:00,66.7,64.8,29.77,WNW,292,0.0,0.0,93,0.00,,---,0.00,VWS V14.01,2013-10-23 10:32:00,
2013-10-23 06:37:00,66.7,64.8,29.77,NW,311,0.0,0.0,93,0.00,,---,0.00,VWS V14.01,2013-10-23 10:37:00,
2013-10-23 06:42:00,66.7,64.8,29.77,West,274,0.0,0.0,93,0.00,,---,0.00,VWS V14.01,2013-10-23 10:42:00,
2013-10-23 06:47:00,66.7,64.8,29.77,WNW,283,0.0,2.2,93,0.00,,---,0.00,VWS V14.01,2013-10-23 10:47:00,
2013-10-23 06:52:00,66.6,64.6,29.77,WNW,283,0.0,0.0,93,0.00,,---,0.00,VWS V14.01,2013-10-23 10:52:00,
2013-10-23 06:57:00,66.6,64.6,29.77,WNW,283,0.0,0.0,93,0.00,,---,0.00,VWS V14.01,2013-10-23 10:57:00,
2013-10-23 07:02:00,66.6,64.6,29.77,WNW,296,0.0,0.0,93,0.00,,---,0.00,VWS V14.01,2013-10-23 11:02:00,
2013-10-23 07:07:00,66.4,64.4,29.77,WNW,296,0.0,0.0,93,0.00,,---,0.00,VWS V14.01,2013-10-23 11:07:00,
2013-10-23 07:12:00,66.4,64.4,29.77,West,272,0.0,0.0,93,0.00,,---,0.00,VWS V14.01,2013-10-23 11:12:00,
2013-10-23 07:17:00,66.4,64.4,29.77,WNW,300,0.0,0.0,93,0.00,,---,0.00,VWS V14.01,2013-10-23 11:17:00,
2013-10-23 07:22:00,66.4,64.4,29.77,WNW,300,0.0,0.0,93,0.00,,---,0.00,VWS V14.01,2013-10-23 11:22:00,
2013-10-23 07:27:00,66.4,64.4,29.77,WNW,300,0.0,0.0,93,0.00,,---,0.00,VWS V14.01,2013-10-23 11:27:00,
2013-10-23 07:32:00,66.4,64.4,29.77,NW,309,0.0,0.0,93,0.00,,---,0.00,VWS V14.01,2013-10-23 11:32:00,
2013-10-23 07:37:00,66.4,64.4,29.77,NNW,327,0.0,0.0,93,0.00,,---,0.00,VWS V14.01,2013-10-23 11:37:00,
2013-10-23 07:42:00,66.4,64.4,29.77,NW,310,2.7,2.7,93,0.00,,---,0.00,VWS V14.01,2013-10-23 11:42:00,
2013-10-23 07:47:00,66.4,64.4,29.77,WNW,294,0.0,0.0,93,0.00,,---,0.00,VWS V14.01,2013-10-23 11:47:00,
2013-10-23 07:52:00,66.4,64.4,29.77,WSW,257,0.0,0.0,93,0.00,,---,0.00,VWS V14.01,2013-10-23 11:52:00,
2013-10-23 07:57:00,66.6,64.6,29.77,WNW,300,0.0,0.0,93,0.00,,---,0.00,VWS V14.01,2013-10-23 11:57:00,
2013-10-23 08:02:00,66.6,64.9,29.77,WNW,298,0.0,0.0,94,0.00,,---,0.00,VWS V14.01,2013-10-23 12:02:00,
2013-10-23 08:07:00,66.6,64.9,29.77,NW,311,0.0,0.0,94,0.00,,---,0.00,VWS V14.01,2013-10-23 12:07:00,
2013-10-23 08:12:00,66.6,64.9,29.80,WNW,298,0.0,0.0,94,0.00,,---,0.00,VWS V14.01,2013-10-23 12:12:00,
2013-10-23 08:17:00,66.7,65.1,29.80,WNW,302,0.0,0.0,94,0.00,,---,0.00,VWS V14.01,2013-10-23 12:17:00,
2013-10-23 08:22:00,66.9,65.3,29.80,West,274,0.0,0.0,94,0.00,,---,0.00,VWS V14.01,2013-10-23 12:22:00,
2013-10-23 08:27:00,66.9,65.3,29.80,NNW,327,0.0,0.0,94,0.00,,---,0.00,VWS V14.01,2013-10-23 12:27:00,
2013-10-23 08:32:00,66.9,65.3,29.80,NW,326,4.9,4.9,94,0.00,,---,0.00,VWS V14.01,2013-10-23 12:32:00,
2013-10-23 08:37:00,66.9,65.3,29.80,WNW,294,0.0,0.0,94,0.00,,---,0.00,VWS V14.01,2013-10-23 12:37:00,
2013-10-23 08:42:00,66.9,65.3,29.80,NW,305,2.7,3.6,94,0.00,,---,0.00,VWS V14.01,2013-10-23 12:42:00,
2013-10-23 08:47:00,66.9,65.3,29.80,West,260,6.3,6.3,94,0.00,,---,0.00,VWS V14.01,2013-10-23 12:47:00,
2013-10-23 08:52:00,66.9,65.3,29.80,West,281,2.2,2.2,94,0.00,,---,0.00,VWS V14.01,2013-10-23 12:52:00,
2013-10-23 08:57:00,67.1,65.5,29.80,NNW,341,0.0,0.0,94,0.00,,---,0.00,VWS V14.01,2013-10-23 12:57:00,
2013-10-23 09:02:00,67.3,65.7,29.80,WNW,303,0.0,0.0,94,0.00,,---,0.00,VWS V14.01,2013-10-23 13:02:00,
2013-10-23 09:07:00,67.6,66.0,29.80,West,271,0.0,0.0,94,0.00,,---,0.00,VWS V14.01,2013-10-23 13:07:00,
2013-10-23 09:12:00,67.8,66.2,29.80,NW,305,0.0,0.0,94,0.00,,---,0.00,VWS V14.01,2013-10-23 13:12:00,
2013-10-23 09:17:00,67.8,66.2,29.80,WNW,302,2.7,3.1,94,0.00,,---,0.00,VWS V14.01,2013-10-23 13:17:00,
2013-10-23 09:22:00,67.8,66.2,29.80,WNW,303,4.5,4.5,94,0.00,,---,0.00,VWS V14.01,2013-10-23 13:22:00,
2013-10-23 09:27:00,70.2,67.9,29.83,WNW,301,0.0,0.0,92,0.00,,---,0.00,VWS V14.01,2013-10-23 13:27:00,
2013-10-23 09:32:00,71.4,67.8,29.83,NNW,329,3.6,3.6,88,0.00,,---,0.00,VWS V14.01,2013-10-23 13:32:00,
2013-10-23 09:37:00,71.4,67.1,29.83,WNW,300,0.0,0.0,86,0.00,,---,0.00,VWS V14.01,2013-10-23 13:37:00,
2013-10-23 09:42:00,71.1,67.1,29.83,NW,314,0.0,0.0,87,0.00,,---,0.00,VWS V14.01,2013-10-23 13:42:00,
2013-10-23 09:47:00,72.7,66.8,29.83,WNW,299,0.0,2.7,82,0.00,,---,0.00,VWS V14.01,2013-10-23 13:47:00,
2013-10-23 09:52:00,73.6,67.0,29.83,SE,128,3.1,3.1,80,0.00,,---,0.00,VWS V14.01,2013-10-23 13:52:00,
2013-10-23 09:57:00,74.5,65.5,29.83,West,281,2.2,2.7,74,0.00,,---,0.00,VWS V14.01,2013-10-23 13:57:00,
2013-10-23 10:02:00,74.5,67.4,29.83,NW,305,5.4,5.4,79,0.00,,---,0.00,VWS V14.01,2013-10-23 14:02:00,
2013-10-23 10:07:00,73.4,62.7,29.83,NNW,334,0.0,2.2,69,0.00,,---,0.00,VWS V14.01,2013-10-23 14:07:00,
2013-10-23 10:12:00,72.7,58.4,29.83,NNW,337,3.6,4.0,61,0.00,,---,0.00,VWS V14.01,2013-10-23 14:12:00,
2013-10-23 10:17:00,72.1,56.9,29.83,North,353,3.6,4.9,59,0.00,,---,0.00,VWS V14.01,2013-10-23 14:17:00,
2013-10-23 10:22:00,71.8,55.1,29.83,NNW,332,4.9,4.9,56,0.00,,---,0.00,VWS V14.01,2013-10-23 14:22:00,
2013-10-23 10:27:00,71.4,51.5,29.83,NNW,333,0.0,3.1,49,0.00,,---,0.00,VWS V14.01,2013-10-23 14:27:00,
2013-10-23 10:32:00,71.4,49.7,29.83,NW,320,4.0,4.0,46,0.00,,---,0.00,VWS V14.01,2013-10-23 14:32:00,
2013-10-23 10:37:00,71.4,49.7,29.83,NW,316,2.7,3.1,46,0.00,,---,0.00,VWS V14.01,2013-10-23 14:37:00,
2013-10-23 10:42:00,72.1,49.7,29.83,NW,315,3.1,4.9,45,0.00,,---,0.00,VWS V14.01,2013-10-23 14:42:00,
2013-10-23 10:47:00,71.8,46.1,29.83,WNW,292,4.9,4.9,40,0.00,,---,0.00,VWS V14.01,2013-10-23 14:47:00,
2013-10-23 10:52:00,71.4,46.5,29.83,NNE,26,2.2,4.0,41,0.00,,---,0.00,VWS V14.01,2013-10-23 14:52:00,
2013-10-23 10:57:00,71.2,46.3,29.83,NW,304,3.6,8.3,41,0.00,,---,0.00,VWS V14.01,2013-10-23 14:57:00,
2013-10-23 11:02:00,71.1,46.8,29.83,NNW,336,2.7,5.4,42,0.00,,---,0.00,VWS V14.01,2013-10-23 15:02:00,
2013-10-23 11:07:00,71.1,46.2,29.83,NW,310,3.1,5.8,41,0.00,,---,0.00,VWS V14.01,2013-10-23 15:07:00,
2013-10-23 11:12:00,71.1,44.8,29.83,WNW,288,4.9,4.9,39,0.00,,---,0.00,VWS V14.01,2013-10-23 15:12:00,
2013-10-23 11:17:00,71.2,44.9,29.83,NNE,12,3.6,7.2,39,0.00,,---,0.00,VWS V14.01,2013-10-23 15:17:00,
2013-10-23 11:22:00,71.1,43.3,29.83,East,97,6.3,6.3,37,0.00,,---,0.00,VWS V14.01,2013-10-23 15:22:00,
2013-10-23 11:27:00,70.9,41.6,29.83,NW,321,4.9,7.2,35,0.00,,---,0.00,VWS V14.01,2013-10-23 15:27:00,
2013-10-23 11:32:00,70.7,40.7,29.83,NW,305,5.4,9.6,34,0.00,,---,0.00,VWS V14.01,2013-10-23 15:32:00,
2013-10-23 11:37:00,70.7,41.5,29.83,NW,316,3.1,5.4,35,0.00,,---,0.00,VWS V14.01,2013-10-23 15:37:00,
2013-10-23 11:42:00,70.9,40.8,29.83,North,3,4.5,4.9,34,0.00,,---,0.00,VWS V14.01,2013-10-23 15:42:00,
2013-10-23 11:47:00,72.0,41.0,29.83,NNE,23,3.1,3.6,33,0.00,,---,0.00,VWS V14.01,2013-10-23 15:47:00,
2013-10-23 11:52:00,72.5,36.9,29.83,WNW,284,4.0,4.0,27,0.00,,---,0.00,VWS V14.01,2013-10-23 15:52:00,
2013-10-23 11:57:00,73.6,37.8,29.83,WNW,301,4.0,5.4,27,0.00,,---,0.00,VWS V14.01,2013-10-23 15:57:00,
2013-10-23 12:02:00,77.4,35.6,29.83,NNE,18,3.6,3.6,22,0.00,,---,0.00,VWS V14.01,2013-10-23 16:02:00,
2013-10-23 12:07:00,82.0,25.6,29.83,WNW,293,5.8,7.6,13,0.00,,---,0.00,VWS V14.01,2013-10-23 16:07:00,
2013-10-23 12:12:00,83.8,24.9,29.83,NNW,334,3.6,5.8,12,0.00,,---,0.00,VWS V14.01,2013-10-23 16:12:00,
2013-10-23 12:17:00,81.5,25.2,29.83,West,270,2.2,6.3,13,0.00,,---,0.00,VWS V14.01,2013-10-23 16:17:00,
2013-10-23 12:22:00,80.6,24.5,29.83,NNW,346,2.2,3.1,13,0.00,,---,0.00,VWS V14.01,2013-10-23 16:22:00,
2013-10-23 12:27:00,77.7,27.6,29.83,WNW,286,4.0,4.0,16,0.00,,---,0.00,VWS V14.01,2013-10-23 16:27:00,
2013-10-23 12:32:00,76.1,26.3,29.83,NW,307,0.0,3.6,16,0.00,,---,0.00,VWS V14.01,2013-10-23 16:32:00,
2013-10-23 12:37:00,77.5,27.5,29.83,WNW,301,0.0,3.1,16,0.00,,---,0.00,VWS V14.01,2013-10-23 16:37:00,
2013-10-23 12:43:00,81.9,25.5,29.83,NW,317,2.7,3.6,13,0.00,,---,0.00,VWS V14.01,2013-10-23 16:43:00,
2013-10-23 12:48:00,81.3,25.1,29.83,WSW,247,2.2,3.1,13,0.00,,---,0.00,VWS V14.01,2013-10-23 16:48:00,
2013-10-23 12:53:00,77.9,24.3,29.83,NW,310,3.6,4.0,14,0.00,,---,0.00,VWS V14.01,2013-10-23 16:53:00,
2013-10-23 12:58:00,75.7,26.0,29.80,WNW,289,2.7,4.0,16,0.00,,---,0.00,VWS V14.01,2013-10-23 16:58:00,
2013-10-23 13:03:00,73.9,26.1,29.80,NW,304,4.0,4.5,17,0.00,,---,0.00,VWS V14.01,2013-10-23 17:03:00,
2013-10-23 13:08:00,73.2,29.7,29.80,NNW,338,2.7,4.0,20,0.00,,---,0.00,VWS V14.01,2013-10-23 17:08:00,
2013-10-23 13:13:00,73.9,29.0,29.80,SSW,202,3.1,6.3,19,0.00,,---,0.00,VWS V14.01,2013-10-23 17:13:00,
2013-10-23 13:18:00,74.1,21.3,29.80,WNW,298,4.0,4.9,14,0.00,,---,0.00,VWS V14.01,2013-10-23 17:18:00,
2013-10-23 13:23:00,74.7,21.8,29.80,West,281,2.7,3.6,14,0.00,,---,0.00,VWS V14.01,2013-10-23 17:23:00,
2013-10-23 13:28:00,77.2,23.7,29.80,NNW,330,3.6,5.4,14,0.00,,---,0.00,VWS V14.01,2013-10-23 17:28:00,
2013-10-23 13:33:00,77.9,24.3,29.80,WNW,299,2.2,8.7,14,0.00,,---,0.00,VWS V14.01,2013-10-23 17:33:00,
2013-10-23 13:38:00,83.7,24.8,29.80,WNW,300,3.6,4.0,12,0.00,,---,0.00,VWS V14.01,2013-10-23 17:38:00,
2013-10-23 13:43:00,87.4,27.7,29.80,NW,305,3.1,8.3,12,0.00,,---,0.00,VWS V14.01,2013-10-23 17:43:00,
2013-10-23 13:48:00,88.7,26.4,29.80,West,279,4.0,5.8,10,0.00,,---,0.00,VWS V14.01,2013-10-23 17:48:00,
2013-10-23 13:53:00,90.0,27.3,29.80,NE,43,2.7,7.6,10,0.00,,---,0.00,VWS V14.01,2013-10-23 17:53:00,
2013-10-23 13:58:00,89.2,26.8,29.80,WSW,251,2.2,4.0,10,0.00,,---,0.00,VWS V14.01,2013-10-23 17:58:00,
2013-10-23 14:03:00,83.7,24.8,29.80,NW,320,7.2,7.6,12,0.00,,---,0.00,VWS V14.01,2013-10-23 18:03:00,
2013-10-23 14:08:00,78.6,24.9,29.80,NW,310,6.3,6.3,14,0.00,,---,0.00,VWS V14.01,2013-10-23 18:08:00,
2013-10-23 14:13:00,76.6,23.3,29.77,West,279,0.0,5.4,14,0.00,,---,0.00,VWS V14.01,2013-10-23 18:13:00,
2013-10-23 14:18:00,75.7,22.6,29.77,WNW,288,2.7,2.7,14,0.00,,---,0.00,VWS V14.01,2013-10-23 18:18:00,
2013-10-23 14:23:00,75.4,25.7,29.77,WNW,285,5.4,5.4,16,0.00,,---,0.00,VWS V14.01,2013-10-23 18:23:00,
2013-10-23 14:28:00,75.4,22.3,29.77,WSW,255,10.1,10.1,14,0.00,,---,0.00,VWS V14.01,2013-10-23 18:28:00,
2013-10-23 14:33:00,75.2,22.2,29.77,WSW,248,4.0,8.3,14,0.00,,---,0.00,VWS V14.01,2013-10-23 18:33:00,
2013-10-23 14:38:00,75.0,22.0,29.77,NNW,342,3.1,4.9,14,0.00,,---,0.00,VWS V14.01,2013-10-23 18:38:00,
2013-10-23 14:43:00,75.2,25.6,29.77,West,271,3.6,3.6,16,0.00,,---,0.00,VWS V14.01,2013-10-23 18:43:00,
2013-10-23 14:48:00,75.2,25.6,29.77,WNW,293,2.7,4.0,16,0.00,,---,0.00,VWS V14.01,2013-10-23 18:48:00,
2013-10-23 14:53:00,75.2,25.6,29.77,NW,325,2.7,2.7,16,0.00,,---,0.00,VWS V14.01,2013-10-23 18:53:00,
2013-10-23 14:58:00,75.2,25.6,29.77,North,7,4.9,4.9,16,0.00,,---,0.00,VWS V14.01,2013-10-23 18:58:00,
2013-10-23 15:03:00,74.8,21.9,29.77,NW,319,2.7,2.7,14,0.00,,---,0.00,VWS V14.01,2013-10-23 19:03:00,
2013-10-23 15:08:00,74.8,26.9,29.77,WNW,295,7.6,7.6,17,0.00,,---,0.00,VWS V14.01,2013-10-23 19:08:00,
2013-10-23 15:13:00,74.5,21.6,29.77,NW,309,3.6,7.6,14,0.00,,---,0.00,VWS V14.01,2013-10-23 19:13:00,
2013-10-23 15:18:00,74.3,21.5,29.77,NNW,329,3.1,4.0,14,0.00,,---,0.00,VWS V14.01,2013-10-23 19:18:00,
2013-10-23 15:23:00,74.3,26.4,29.77,West,268,2.7,5.8,17,0.00,,---,0.00,VWS V14.01,2013-10-23 19:23:00,
2013-10-23 15:28:00,74.1,21.3,29.77,SSE,150,0.0,0.0,14,0.00,,---,0.00,VWS V14.01,2013-10-23 19:28:00,
2013-10-23 15:33:00,74.1,26.3,29.77,WNW,296,3.1,3.1,17,0.00,,---,0.00,VWS V14.01,2013-10-23 19:33:00,
2013-10-23 15:38:00,74.3,21.5,29.77,NW,309,5.8,5.8,14,0.00,,---,0.00,VWS V14.01,2013-10-23 19:38:00,
2013-10-23 15:43:00,74.3,21.5,29.77,WSW,257,2.7,2.7,14,0.00,,---,0.00,VWS V14.01,2013-10-23 19:43:00,
2013-10-23 15:48:00,74.3,21.5,29.77,West,272,8.1,8.1,14,0.00,,---,0.00,VWS V14.01,2013-10-23 19:48:00,
2013-10-23 15:53:00,74.1,26.3,29.77,WNW,283,0.0,0.0,17,0.00,,---,0.00,VWS V14.01,2013-10-23 19:53:00,
2013-10-23 15:58:00,74.1,21.3,29.77,NNW,344,4.9,4.9,14,0.00,,---,0.00,VWS V14.01,2013-10-23 19:58:00,
2013-10-23 16:03:00,74.3,26.4,29.77,NNW,329,0.0,0.0,17,0.00,,---,0.00,VWS V14.01,2013-10-23 20:03:00,
2013-10-23 16:08:00,74.3,21.5,29.77,WNW,293,0.0,0.0,14,0.00,,---,0.00,VWS V14.01,2013-10-23 20:08:00,
2013-10-23 16:13:00,74.3,21.5,29.77,NNW,332,0.0,0.0,14,0.00,,---,0.00,VWS V14.01,2013-10-23 20:13:00,
2013-10-23 16:18:00,74.3,21.5,29.77,North,6,0.0,0.0,14,0.00,,---,0.00,VWS V14.01,2013-10-23 20:18:00,
2013-10-23 16:23:00,74.3,26.4,29.77,NNW,327,0.0,0.0,17,0.00,,---,0.00,VWS V14.01,2013-10-23 20:23:00,
2013-10-23 16:28:00,74.3,26.4,29.77,WNW,297,4.0,4.0,17,0.00,,---,0.00,VWS V14.01,2013-10-23 20:28:00,
2013-10-23 16:33:00,74.1,21.3,29.77,NW,316,3.6,3.6,14,0.00,,---,0.00,VWS V14.01,2013-10-23 20:33:00,
2013-10-23 16:38:00,74.1,21.3,29.77,West,265,2.7,3.1,14,0.00,,---,0.00,VWS V14.01,2013-10-23 20:38:00,
2013-10-23 16:43:00,73.9,21.2,29.77,NNW,333,2.7,2.7,14,0.00,,---,0.00,VWS V14.01,2013-10-23 20:43:00,
2013-10-23 16:48:00,73.8,21.0,29.77,North,357,8.7,8.7,14,0.00,,---,0.00,VWS V14.01,2013-10-23 20:48:00,
2013-10-23 16:53:00,73.6,20.9,29.77,NW,325,2.7,2.7,14,0.00,,---,0.00,VWS V14.01,2013-10-23 20:53:00,
2013-10-23 16:58:00,73.4,20.8,29.77,NW,306,3.6,3.6,14,0.00,,---,0.00,VWS V14.01,2013-10-23 20:58:00,
2013-10-23 17:03:00,73.2,22.4,29.77,NW,323,6.3,6.3,15,0.00,,---,0.00,VWS V14.01,2013-10-23 21:03:00,
2013-10-23 17:08:00,73.0,22.2,29.77,NNW,334,3.6,6.3,15,0.00,,---,0.00,VWS V14.01,2013-10-23 21:08:00,
2013-10-23 17:13:00,72.9,22.1,29.80,WSW,246,5.4,9.2,15,0.00,,---,0.00,VWS V14.01,2013-10-23 21:13:00,
2013-10-23 17:18:00,72.9,22.1,29.80,WSW,240,6.3,6.3,15,0.00,,---,0.00,VWS V14.01,2013-10-23 21:18:00,
2013-10-23 17:23:00,72.7,21.9,29.80,NW,313,4.9,4.9,15,0.00,,---,0.00,VWS V14.01,2013-10-23 21:23:00,
2013-10-23 17:28:00,72.3,21.6,29.80,NNW,341,5.4,5.4,15,0.00,,---,0.00,VWS V14.01,2013-10-23 21:28:00,
2013-10-23 17:33:00,72.1,21.5,29.80,NW,317,2.7,2.7,15,0.00,,---,0.00,VWS V14.01,2013-10-23 21:33:00,
2013-10-23 17:38:00,72.0,21.4,29.80,WNW,286,5.4,5.4,15,0.00,,---,0.00,VWS V14.01,2013-10-23 21:38:00,
2013-10-23 17:43:00,72.0,21.4,29.80,WNW,284,6.3,6.3,15,0.00,,---,0.00,VWS V14.01,2013-10-23 21:43:00,
2013-10-23 17:48:00,71.8,21.2,29.80,WNW,296,4.0,4.5,15,0.00,,---,0.00,VWS V14.01,2013-10-23 21:48:00,
2013-10-23 17:53:00,71.6,21.1,29.80,NNW,335,3.1,4.0,15,0.00,,---,0.00,VWS V14.01,2013-10-23 21:53:00,
2013-10-23 17:58:00,71.4,20.9,29.80,WNW,299,2.7,4.9,15,0.00,,---,0.00,VWS V14.01,2013-10-23 21:58:00,
2013-10-23 18:03:00,71.2,20.8,29.80,WNW,296,3.1,3.1,15,0.00,,---,0.00,VWS V14.01,2013-10-23 22:03:00,
2013-10-23 18:08:00,71.1,20.6,29.80,WNW,290,4.0,4.0,15,0.00,,---,0.00,VWS V14.01,2013-10-23 22:08:00,
2013-10-23 18:13:00,70.9,25.1,29.80,NNW,341,3.1,3.1,18,0.00,,---,0.00,VWS V14.01,2013-10-23 22:13:00,
2013-10-23 18:18:00,70.5,20.2,29.80,WNW,296,3.1,3.1,15,0.00,,---,0.00,VWS V14.01,2013-10-23 22:18:00,
2013-10-23 18:23:00,70.3,20.1,29.80,NNW,327,2.2,4.9,15,0.00,,---,0.00,VWS V14.01,2013-10-23 22:23:00,
2013-10-23 18:28:00,70.0,19.8,29.80,NW,319,0.0,2.7,15,0.00,,---,0.00,VWS V14.01,2013-10-23 22:28:00,
2013-10-23 18:33:00,69.8,19.6,29.80,WNW,290,2.2,2.2,15,0.00,,---,0.00,VWS V14.01,2013-10-23 22:33:00,
2013-10-23 18:38:00,69.4,23.9,29.83,NW,306,2.2,2.2,18,0.00,,---,0.00,VWS V14.01,2013-10-23 22:38:00,
2013-10-23 18:43:00,69.1,23.6,29.83,WNW,298,2.7,2.7,18,0.00,,---,0.00,VWS V14.01,2013-10-23 22:43:00,
2013-10-23 18:48:00,68.7,23.3,29.83,WNW,294,0.0,0.0,18,0.00,,---,0.00,VWS V14.01,2013-10-23 22:48:00,
2013-10-23 18:53:00,68.4,23.0,29.83,WNW,294,2.2,2.2,18,0.00,,---,0.00,VWS V14.01,2013-10-23 22:53:00,
2013-10-23 18:58:00,68.0,22.8,29.83,WNW,301,4.0,4.0,18,0.00,,---,0.00,VWS V14.01,2013-10-23 22:58:00,
2013-10-23 19:03:00,67.8,22.6,29.83,WNW,301,0.0,0.0,18,0.00,,---,0.00,VWS V14.01,2013-10-23 23:03:00,
2013-10-23 19:08:00,67.5,26.2,29.83,WNW,298,3.6,3.6,21,0.00,,---,0.00,VWS V14.01,2013-10-23 23:08:00,
2013-10-23 19:13:00,67.3,28.4,29.83,WNW,299,2.7,2.7,23,0.00,,---,0.00,VWS V14.01,2013-10-23 23:13:00,
2013-10-23 19:18:00,66.9,29.1,29.83,WNW,299,0.0,0.0,24,0.00,,---,0.00,VWS V14.01,2013-10-23 23:18:00,
2013-10-23 19:23:00,66.7,29.0,29.83,WNW,297,0.0,0.0,24,0.00,,---,0.00,VWS V14.01,2013-10-23 23:23:00,
2013-10-23 19:28:00,66.6,28.8,29.83,NW,305,0.0,0.0,24,0.00,,---,0.00,VWS V14.01,2013-10-23 23:28:00,
2013-10-23 19:33:00,66.4,28.7,29.83,WNW,293,0.0,0.0,24,0.00,,---,0.00,VWS V14.01,2013-10-23 23:33:00,
2013-10-23 19:38:00,66.2,28.5,29.83,WNW,293,0.0,0.0,24,0.00,,---,0.00,VWS V14.01,2013-10-23 23:38:00,
2013-10-23 19:43:00,65.8,29.3,29.85,WNW,300,0.0,0.0,25,0.00,,---,0.00,VWS V14.01,2013-10-23 23:43:00,
2013-10-23 19:48:00,65.5,29.0,29.85,WNW,300,0.0,0.0,25,0.00,,---,0.00,VWS V14.01,2013-10-23 23:48:00,
2013-10-23 19:53:00,65.3,28.8,29.85,WNW,300,0.0,0.0,25,0.00,,---,0.00,VWS V14.01,2013-10-23 23:53:00,
2013-10-23 19:58:00,64.9,28.5,29.85,WNW,300,0.0,0.0,25,0.00,,---,0.00,VWS V14.01,2013-10-23 23:58:00,
2013-10-23 20:03:00,64.6,28.2,29.85,WNW,300,0.0,0.0,25,0.00,,---,0.00,VWS V14.01,2013-10-24 00:03:00,
2013-10-23 20:08:00,64.4,28.0,29.85,WNW,300,0.0,0.0,25,0.00,,---,0.00,VWS V14.01,2013-10-24 00:08:00,
2013-10-23 20:13:00,64.2,28.9,29.85,WNW,300,2.2,2.2,26,0.00,,---,0.00,VWS V14.01,2013-10-24 00:13:00,
2013-10-23 20:18:00,63.9,28.6,29.85,WNW,300,0.0,0.0,26,0.00,,---,0.00,VWS V14.01,2013-10-24 00:18:00,
2013-10-23 20:23:00,63.7,28.4,29.85,WNW,300,0.0,0.0,26,0.00,,---,0.00,VWS V14.01,2013-10-24 00:23:00,
2013-10-23 20:28:00,63.5,28.3,29.85,WNW,300,0.0,0.0,26,0.00,,---,0.00,VWS V14.01,2013-10-24 00:28:00,
2013-10-23 20:33:00,63.5,29.2,29.85,WNW,300,0.0,0.0,27,0.00,,---,0.00,VWS V14.01,2013-10-24 00:33:00,
2013-10-23 20:38:00,63.1,29.8,29.85,WNW,300,0.0,0.0,28,0.00,,---,0.00,VWS V14.01,2013-10-24 00:38:00,
2013-10-23 20:43:00,63.0,29.7,29.88,WNW,300,0.0,0.0,28,0.00,,---,0.00,VWS V14.01,2013-10-24 00:43:00,
2013-10-23 20:48:00,62.6,29.4,29.88,WNW,300,0.0,0.0,28,0.00,,---,0.00,VWS V14.01,2013-10-24 00:48:00,
2013-10-23 20:53:00,62.4,30.1,29.88,WNW,300,0.0,0.0,29,0.00,,---,0.00,VWS V14.01,2013-10-24 00:53:00,
2013-10-23 20:58:00,62.2,30.8,29.88,WNW,300,0.0,0.0,30,0.00,,---,0.00,VWS V14.01,2013-10-24 00:58:00,
2013-10-23 21:03:00,62.2,30.8,29.88,WNW,300,0.0,0.0,30,0.00,,---,0.00,VWS V14.01,2013-10-24 01:03:00,
2013-10-23 21:08:00,62.2,31.6,29.88,WNW,301,0.0,0.0,31,0.00,,---,0.00,VWS V14.01,2013-10-24 01:08:00,
2013-10-23 21:13:00,62.2,32.5,29.88,NW,320,0.0,0.0,33,0.00,,---,0.00,VWS V14.01,2013-10-24 01:13:00,
2013-10-23 21:18:00,62.1,32.3,29.88,NW,320,0.0,0.0,33,0.00,,---,0.00,VWS V14.01,2013-10-24 01:18:00,
2013-10-23 21:23:00,61.9,31.3,29.88,NW,320,0.0,0.0,31,0.00,,---,0.00,VWS V14.01,2013-10-24 01:23:00,
2013-10-23 21:28:00,61.7,31.2,29.88,NW,305,0.0,0.0,31,0.00,,---,0.00,VWS V14.01,2013-10-24 01:28:00,
2013-10-23 21:33:00,61.5,31.8,29.88,NW,305,0.0,0.0,33,0.00,,---,0.00,VWS V14.01,2013-10-24 01:33:00,
2013-10-23 21:38:00,61.3,31.7,29.88,NW,305,0.0,0.0,33,0.00,,---,0.00,VWS V14.01,2013-10-24 01:38:00,
2013-10-23 21:43:00,61.2,31.5,29.88,NW,304,0.0,0.0,33,0.00,,---,0.00,VWS V14.01,2013-10-24 01:43:00,
2013-10-23 21:48:00,61.0,31.4,29.88,NW,304,0.0,0.0,33,0.00,,---,0.00,VWS V14.01,2013-10-24 01:48:00,
2013-10-23 21:53:00,61.0,32.1,29.88,NW,304,0.0,0.0,34,0.00,,---,0.00,VWS V14.01,2013-10-24 01:53:00,
2013-10-23 21:58:00,60.8,32.0,29.88,NW,304,0.0,0.0,34,0.00,,---,0.00,VWS V14.01,2013-10-24 01:58:00,
2013-10-23 22:03:00,60.6,32.6,29.88,NW,304,0.0,0.0,35,0.00,,---,0.00,VWS V14.01,2013-10-24 02:03:00,
2013-10-23 22:08:00,60.6,33.3,29.88,NW,304,0.0,0.0,36,0.00,,---,0.00,VWS V14.01,2013-10-24 02:08:00,
2013-10-23 22:13:00,60.4,33.2,29.91,NW,304,0.0,0.0,36,0.00,,---,0.00,VWS V14.01,2013-10-24 02:13:00,
2013-10-23 22:18:00,60.3,33.0,29.91,NW,308,0.0,0.0,36,0.00,,---,0.00,VWS V14.01,2013-10-24 02:18:00,
2013-10-23 22:23:00,60.1,33.6,29.91,NNW,348,0.0,0.0,37,0.00,,---,0.00,VWS V14.01,2013-10-24 02:23:00,
2013-10-23 22:28:00,60.1,32.8,29.91,NNW,348,0.0,0.0,36,0.00,,---,0.00,VWS V14.01,2013-10-24 02:28:00,
2013-10-23 22:33:00,60.1,32.8,29.91,NNW,348,0.0,0.0,36,0.00,,---,0.00,VWS V14.01,2013-10-24 02:33:00,
2013-10-23 22:38:00,60.1,32.8,29.91,NNW,348,0.0,0.0,36,0.00,,---,0.00,VWS V14.01,2013-10-24 02:38:00,
2013-10-23 22:43:00,60.3,33.7,29.91,WNW,294,2.7,3.1,37,0.00,,---,0.00,VWS V14.01,2013-10-24 02:43:00,
2013-10-23 22:48:00,60.1,33.6,29.91,NW,313,0.0,0.0,37,0.00,,---,0.00,VWS V14.01,2013-10-24 02:48:00,
2013-10-23 22:53:00,60.3,33.7,29.91,NNE,12,0.0,0.0,37,0.00,,---,0.00,VWS V14.01,2013-10-24 02:53:00,
2013-10-23 22:58:00,60.3,33.0,29.91,NNE,12,0.0,0.0,36,0.00,,---,0.00,VWS V14.01,2013-10-24 02:58:00,
2013-10-23 23:03:00,60.3,33.0,29.91,NNE,12,0.0,0.0,36,0.00,,---,0.00,VWS V14.01,2013-10-24 03:03:00,
2013-10-23 23:08:00,60.1,32.8,29.91,NNE,12,0.0,0.0,36,0.00,,---,0.00,VWS V14.01,2013-10-24 03:08:00,
2013-10-23 23:13:00,59.7,32.5,29.94,NNE,12,0.0,0.0,36,0.00,,---,0.00,VWS V14.01,2013-10-24 03:13:00,
2013-10-23 23:18:00,59.4,32.2,29.94,NNE,12,0.0,0.0,36,0.00,,---,0.00,VWS V14.01,2013-10-24 03:18:00,
2013-10-23 23:23:00,59.2,32.1,29.94,NNE,12,0.0,0.0,36,0.00,,---,0.00,VWS V14.01,2013-10-24 03:23:00,
2013-10-23 23:28:00,59.0,32.6,29.94,NNE,12,0.0,0.0,37,0.00,,---,0.00,VWS V14.01,2013-10-24 03:28:00,
2013-10-23 23:33:00,58.8,32.5,29.94,NNE,12,0.0,0.0,37,0.00,,---,0.00,VWS V14.01,2013-10-24 03:33:00,
2013-10-23 23:38:00,58.8,32.5,29.94,NNE,12,0.0,0.0,37,0.00,,---,0.00,VWS V14.01,2013-10-24 03:38:00,
2013-10-23 23:43:00,58.6,32.3,29.94,NNE,12,0.0,0.0,37,0.00,,---,0.00,VWS V14.01,2013-10-24 03:43:00,
2013-10-23 23:48:00,58.5,32.1,29.94,NNE,12,0.0,0.0,37,0.00,,---,0.00,VWS V14.01,2013-10-24 03:48:00,
2013-10-23 23:53:00,58.5,32.1,29.94,NNE,12,0.0,0.0,37,0.00,,---,0.00,VWS V14.01,2013-10-24 03:53:00,
2013-10-23 23:58:00,58.5,32.1,29.94,NNE,12,0.0,0.0,37,0.00,,---,0.00,VWS V14.01,2013-10-24 03:58:00,